Waukee, Iowa
Current Conditions -  °F | °C
As of 10:54 AM on Thursday 30 Oct 2014 (Local Time) from KDSM Reporting Station
Few Clouds Few Clouds  
Wind Chill: 12°   Ceiling: Unl
Heat Index: 12°   Visibility: 10mi
Dew Point:   Wind: 6mph
Humidity: 53%   Direction: 220°SW
Pressure: 30.02"   Gusts: NA
Location:  41.61°N, 93.89°W
Report Text: KDSM 301554Z 22005KT 10SM FEW100 FEW150 12/03 A3002 RMK AO2 SLP169 T01220028
Loading
Personal Weather Stations






























Interactive Weather Map
Tropical Storm Tracking
New forecast layout! Learn more

10-Day Weather Forecast

Advertisements
Track Severe Weather on mobile